Evans Junction, Iowa
Current Conditions -  °F | °C
As of 9:15 PM on Saturday 20 Dec 2014 (Local Time) from KPEA Reporting Station
Haze Haze  
Wind Chill: 31°   Ceiling: 300
Heat Index: 35°   Visibility: 3mi
Dew Point: 35°   Wind: 5mph
Humidity: 99%   Direction: 150°SSE
Pressure: 30.14"   Gusts: NA
Location:  41.2952°N, 92.7652°W
Report Text: KPEA 210315Z AUTO 15004KT 3SM BR OVC003 02/02 A3014 RMK AO2 T00160015
Loading
Personal Weather Stations






























Interactive Weather Map New forecast layout! Learn more

10-Day Weather Forecast

Advertisements
Track Severe Weather on mobile